sensor_id;sensor_type;location;lat;lon;timestamp;P1;durP1;ratioP1;P2;durP2;ratioP2
20619;SDS011;10469;42.720;23.252;2023-04-24T00:00:39;23.15;;;5.68;;
20619;SDS011;10469;42.720;23.252;2023-04-24T00:03:06;10.65;;;6.38;;
20619;SDS011;10469;42.720;23.252;2023-04-24T00:05:32;9.65;;;5.38;;
20619;SDS011;10469;42.720;23.252;2023-04-24T00:07:57;8.20;;;5.50;;
20619;SDS011;10469;42.720;23.252;2023-04-24T00:10:23;9.23;;;5.28;;
20619;SDS011;10469;42.720;23.252;2023-04-24T00:12:49;11.48;;;5.68;;
20619;SDS011;10469;42.720;23.252;2023-04-24T00:15:15;9.10;;;6.05;;
20619;SDS011;10469;42.720;23.252;2023-04-24T00:17:40;7.90;;;5.78;;
20619;SDS011;10469;42.720;23.252;2023-04-24T00:20:06;11.40;;;6.00;;
20619;SDS011;10469;42.720;23.252;2023-04-24T00:22:32;8.45;;;5.57;;
20619;SDS011;10469;42.720;23.252;2023-04-24T00:24:58;7.93;;;5.95;;
20619;SDS011;10469;42.720;23.252;2023-04-24T00:27:24;6.65;;;5.20;;
20619;SDS011;10469;42.720;23.252;2023-04-24T00:29:49;10.30;;;5.88;;
20619;SDS011;10469;42.720;23.252;2023-04-24T00:32:15;9.13;;;5.90;;
20619;SDS011;10469;42.720;23.252;2023-04-24T00:34:40;12.52;;;6.65;;
20619;SDS011;10469;42.720;23.252;2023-04-24T00:37:06;10.63;;;7.60;;
20619;SDS011;10469;42.720;23.252;2023-04-24T00:39:32;14.48;;;7.80;;
20619;SDS011;10469;42.720;23.252;2023-04-24T00:41:58;10.52;;;7.68;;
20619;SDS011;10469;42.720;23.252;2023-04-24T00:44:24;18.10;;;9.07;;
20619;SDS011;10469;42.720;23.252;2023-04-24T00:46:49;18.17;;;8.70;;
20619;SDS011;10469;42.720;23.252;2023-04-24T00:49:19;15.05;;;8.18;;
20619;SDS011;10469;42.720;23.252;2023-04-24T00:51:45;12.98;;;8.57;;
20619;SDS011;10469;42.720;23.252;2023-04-24T00:54:15;20.35;;;9.10;;
20619;SDS011;10469;42.720;23.252;2023-04-24T00:56:41;15.38;;;9.10;;
20619;SDS011;10469;42.720;23.252;2023-04-24T00:59:07;14.82;;;9.20;;
20619;SDS011;10469;42.720;23.252;2023-04-24T01:01:33;17.80;;;9.65;;
20619;SDS011;10469;42.720;23.252;2023-04-24T01:03:59;16.88;;;9.00;;
20619;SDS011;10469;42.720;23.252;2023-04-24T01:06:27;12.48;;;8.25;;
20619;SDS011;10469;42.720;23.252;2023-04-24T01:08:54;15.10;;;8.60;;
20619;SDS011;10469;42.720;23.252;2023-04-24T01:11:20;10.38;;;7.80;;
20619;SDS011;10469;42.720;23.252;2023-04-24T01:13:47;13.88;;;8.52;;
20619;SDS011;10469;42.720;23.252;2023-04-24T01:16:13;15.45;;;9.13;;
20619;SDS011;10469;42.720;23.252;2023-04-24T01:18:40;12.43;;;7.97;;
20619;SDS011;10469;42.720;23.252;2023-04-24T01:21:06;11.40;;;7.90;;
20619;SDS011;10469;42.720;23.252;2023-04-24T01:23:33;9.27;;;7.03;;
20619;SDS011;10469;42.720;23.252;2023-04-24T01:26:00;12.52;;;7.72;;
20619;SDS011;10469;42.720;23.252;2023-04-24T01:28:26;11.68;;;8.43;;
20619;SDS011;10469;42.720;23.252;2023-04-24T01:30:51;12.60;;;7.10;;
20619;SDS011;10469;42.720;23.252;2023-04-24T01:33:17;13.32;;;7.97;;
20619;SDS011;10469;42.720;23.252;2023-04-24T01:35:43;12.55;;;6.32;;
20619;SDS011;10469;42.720;23.252;2023-04-24T01:38:08;13.32;;;6.22;;
20619;SDS011;10469;42.720;23.252;2023-04-24T01:40:34;9.13;;;5.95;;
20619;SDS011;10469;42.720;23.252;2023-04-24T01:43:00;8.80;;;6.57;;
20619;SDS011;10469;42.720;23.252;2023-04-24T01:45:26;12.82;;;7.60;;
20619;SDS011;10469;42.720;23.252;2023-04-24T01:47:51;13.35;;;7.57;;
20619;SDS011;10469;42.720;23.252;2023-04-24T01:50:17;8.27;;;6.55;;
20619;SDS011;10469;42.720;23.252;2023-04-24T01:52:43;9.85;;;6.45;;
20619;SDS011;10469;42.720;23.252;2023-04-24T01:55:09;12.35;;;6.70;;
20619;SDS011;10469;42.720;23.252;2023-04-24T01:57:35;13.40;;;7.15;;
20619;SDS011;10469;42.720;23.252;2023-04-24T02:00:01;9.25;;;5.72;;
20619;SDS011;10469;42.720;23.252;2023-04-24T02:02:29;12.05;;;7.60;;
20619;SDS011;10469;42.720;23.252;2023-04-24T02:04:55;7.15;;;5.97;;
20619;SDS011;10469;42.720;23.252;2023-04-24T02:07:20;9.25;;;7.00;;
20619;SDS011;10469;42.720;23.252;2023-04-24T02:09:46;15.77;;;7.78;;
20619;SDS011;10469;42.720;23.252;2023-04-24T02:12:12;11.77;;;7.88;;
20619;SDS011;10469;42.720;23.252;2023-04-24T02:14:37;10.68;;;7.60;;
20619;SDS011;10469;42.720;23.252;2023-04-24T02:17:03;11.90;;;7.50;;
20619;SDS011;10469;42.720;23.252;2023-04-24T02:19:29;15.27;;;8.88;;
20619;SDS011;10469;42.720;23.252;2023-04-24T02:21:55;10.45;;;8.30;;
20619;SDS011;10469;42.720;23.252;2023-04-24T02:24:21;11.45;;;8.05;;
20619;SDS011;10469;42.720;23.252;2023-04-24T02:26:46;14.07;;;7.97;;
20619;SDS011;10469;42.720;23.252;2023-04-24T02:29:12;9.50;;;7.25;;
20619;SDS011;10469;42.720;23.252;2023-04-24T02:31:37;13.32;;;8.27;;
20619;SDS011;10469;42.720;23.252;2023-04-24T02:34:03;11.88;;;7.78;;
20619;SDS011;10469;42.720;23.252;2023-04-24T02:36:28;11.93;;;7.88;;
20619;SDS011;10469;42.720;23.252;2023-04-24T02:38:55;15.95;;;7.85;;
20619;SDS011;10469;42.720;23.252;2023-04-24T02:41:20;13.27;;;8.57;;
20619;SDS011;10469;42.720;23.252;2023-04-24T02:43:46;12.68;;;9.13;;
20619;SDS011;10469;42.720;23.252;2023-04-24T02:46:11;12.38;;;8.43;;
20619;SDS011;10469;42.720;23.252;2023-04-24T02:48:37;16.83;;;8.60;;
20619;SDS011;10469;42.720;23.252;2023-04-24T02:51:03;12.23;;;8.48;;
20619;SDS011;10469;42.720;23.252;2023-04-24T02:53:28;13.23;;;7.40;;
20619;SDS011;10469;42.720;23.252;2023-04-24T02:55:55;9.80;;;7.38;;
20619;SDS011;10469;42.720;23.252;2023-04-24T02:58:21;12.25;;;7.35;;
20619;SDS011;10469;42.720;23.252;2023-04-24T03:00:47;8.70;;;7.35;;
20619;SDS011;10469;42.720;23.252;2023-04-24T03:03:12;10.48;;;8.32;;
20619;SDS011;10469;42.720;23.252;2023-04-24T03:05:38;17.13;;;8.30;;
20619;SDS011;10469;42.720;23.252;2023-04-24T03:08:04;10.68;;;7.72;;
20619;SDS011;10469;42.720;23.252;2023-04-24T03:10:30;9.20;;;7.03;;
20619;SDS011;10469;42.720;23.252;2023-04-24T03:12:55;15.10;;;7.60;;
20619;SDS011;10469;42.720;23.252;2023-04-24T03:15:21;20.40;;;7.93;;
20619;SDS011;10469;42.720;23.252;2023-04-24T03:17:46;15.63;;;7.75;;
20619;SDS011;10469;42.720;23.252;2023-04-24T03:20:12;13.90;;;7.53;;
20619;SDS011;10469;42.720;23.252;2023-04-24T03:22:38;10.57;;;7.38;;
20619;SDS011;10469;42.720;23.252;2023-04-24T03:25:04;14.88;;;8.75;;
20619;SDS011;10469;42.720;23.252;2023-04-24T03:27:30;12.70;;;7.22;;
20619;SDS011;10469;42.720;23.252;2023-04-24T03:29:55;14.27;;;8.05;;
20619;SDS011;10469;42.720;23.252;2023-04-24T03:32:21;16.33;;;7.90;;
20619;SDS011;10469;42.720;23.252;2023-04-24T03:34:48;17.45;;;8.43;;
20619;SDS011;10469;42.720;23.252;2023-04-24T03:37:14;13.52;;;8.07;;
20619;SDS011;10469;42.720;23.252;2023-04-24T03:39:40;12.60;;;7.78;;
20619;SDS011;10469;42.720;23.252;2023-04-24T03:42:06;13.18;;;8.52;;
20619;SDS011;10469;42.720;23.252;2023-04-24T03:44:31;15.02;;;8.68;;
20619;SDS011;10469;42.720;23.252;2023-04-24T03:46:57;14.30;;;8.20;;
20619;SDS011;10469;42.720;23.252;2023-04-24T03:49:23;20.70;;;8.88;;
20619;SDS011;10469;42.720;23.252;2023-04-24T03:51:48;15.68;;;8.15;;
20619;SDS011;10469;42.720;23.252;2023-04-24T03:54:14;16.10;;;8.02;;
20619;SDS011;10469;42.720;23.252;2023-04-24T03:56:39;21.13;;;8.07;;
20619;SDS011;10469;42.720;23.252;2023-04-24T03:59:05;14.93;;;7.78;;
20619;SDS011;10469;42.720;23.252;2023-04-24T04:01:31;16.85;;;8.80;;
20619;SDS011;10469;42.720;23.252;2023-04-24T04:03:56;15.95;;;8.18;;
20619;SDS011;10469;42.720;23.252;2023-04-24T04:06:21;10.90;;;8.20;;
20619;SDS011;10469;42.720;23.252;2023-04-24T04:08:47;10.48;;;7.72;;
20619;SDS011;10469;42.720;23.252;2023-04-24T04:11:13;26.50;;;9.02;;
20619;SDS011;10469;42.720;23.252;2023-04-24T04:13:38;11.40;;;7.00;;
20619;SDS011;10469;42.720;23.252;2023-04-24T04:16:04;24.83;;;8.10;;
20619;SDS011;10469;42.720;23.252;2023-04-24T04:18:30;12.68;;;7.53;;
20619;SDS011;10469;42.720;23.252;2023-04-24T04:20:55;10.75;;;6.88;;
20619;SDS011;10469;42.720;23.252;2023-04-24T04:23:22;11.80;;;7.00;;
20619;SDS011;10469;42.720;23.252;2023-04-24T04:25:47;13.65;;;7.32;;
20619;SDS011;10469;42.720;23.252;2023-04-24T04:28:13;15.95;;;7.88;;
20619;SDS011;10469;42.720;23.252;2023-04-24T04:30:39;13.43;;;7.65;;
20619;SDS011;10469;42.720;23.252;2023-04-24T04:33:05;13.63;;;7.85;;
20619;SDS011;10469;42.720;23.252;2023-04-24T04:35:30;16.67;;;8.00;;
20619;SDS011;10469;42.720;23.252;2023-04-24T04:37:56;15.02;;;8.20;;
20619;SDS011;10469;42.720;23.252;2023-04-24T04:40:23;19.42;;;8.38;;
20619;SDS011;10469;42.720;23.252;2023-04-24T04:42:49;20.23;;;8.13;;
20619;SDS011;10469;42.720;23.252;2023-04-24T04:45:18;23.02;;;8.82;;
20619;SDS011;10469;42.720;23.252;2023-04-24T04:47:43;17.48;;;8.27;;
20619;SDS011;10469;42.720;23.252;2023-04-24T04:50:09;20.80;;;9.77;;
20619;SDS011;10469;42.720;23.252;2023-04-24T04:52:35;15.82;;;7.95;;
20619;SDS011;10469;42.720;23.252;2023-04-24T04:55:01;16.85;;;8.55;;
20619;SDS011;10469;42.720;23.252;2023-04-24T04:57:26;18.65;;;8.02;;
20619;SDS011;10469;42.720;23.252;2023-04-24T04:59:52;20.30;;;8.02;;
20619;SDS011;10469;42.720;23.252;2023-04-24T05:02:18;14.35;;;8.25;;
20619;SDS011;10469;42.720;23.252;2023-04-24T05:04:43;25.50;;;9.55;;
20619;SDS011;10469;42.720;23.252;2023-04-24T05:07:10;18.00;;;8.32;;
20619;SDS011;10469;42.720;23.252;2023-04-24T05:09:36;20.08;;;8.20;;
20619;SDS011;10469;42.720;23.252;2023-04-24T05:12:02;17.73;;;7.65;;
20619;SDS011;10469;42.720;23.252;2023-04-24T05:14:28;17.83;;;9.30;;
20619;SDS011;10469;42.720;23.252;2023-04-24T05:16:53;18.75;;;8.75;;
20619;SDS011;10469;42.720;23.252;2023-04-24T05:19:19;13.98;;;8.15;;
20619;SDS011;10469;42.720;23.252;2023-04-24T05:21:44;12.90;;;8.10;;
20619;SDS011;10469;42.720;23.252;2023-04-24T05:24:10;23.23;;;9.30;;
20619;SDS011;10469;42.720;23.252;2023-04-24T05:26:35;19.13;;;8.38;;
20619;SDS011;10469;42.720;23.252;2023-04-24T05:29:01;18.13;;;8.85;;
20619;SDS011;10469;42.720;23.252;2023-04-24T05:31:27;13.75;;;7.88;;
20619;SDS011;10469;42.720;23.252;2023-04-24T05:33:53;16.33;;;6.90;;
20619;SDS011;10469;42.720;23.252;2023-04-24T05:36:18;10.05;;;7.03;;
20619;SDS011;10469;42.720;23.252;2023-04-24T05:38:44;10.23;;;7.30;;
20619;SDS011;10469;42.720;23.252;2023-04-24T05:41:10;15.20;;;7.43;;
20619;SDS011;10469;42.720;23.252;2023-04-24T05:43:35;13.05;;;7.82;;
20619;SDS011;10469;42.720;23.252;2023-04-24T05:46:01;14.65;;;8.45;;
20619;SDS011;10469;42.720;23.252;2023-04-24T05:48:26;19.23;;;7.63;;
20619;SDS011;10469;42.720;23.252;2023-04-24T05:50:52;14.80;;;6.57;;
20619;SDS011;10469;42.720;23.252;2023-04-24T05:53:17;11.05;;;6.30;;
20619;SDS011;10469;42.720;23.252;2023-04-24T05:55:43;13.60;;;6.15;;
20619;SDS011;10469;42.720;23.252;2023-04-24T05:58:09;9.68;;;6.10;;
20619;SDS011;10469;42.720;23.252;2023-04-24T06:00:35;10.32;;;6.82;;
20619;SDS011;10469;42.720;23.252;2023-04-24T06:03:04;12.48;;;6.32;;
20619;SDS011;10469;42.720;23.252;2023-04-24T06:05:30;11.95;;;7.20;;
20619;SDS011;10469;42.720;23.252;2023-04-24T06:07:56;22.38;;;6.65;;
20619;SDS011;10469;42.720;23.252;2023-04-24T06:10:23;13.65;;;6.82;;
20619;SDS011;10469;42.720;23.252;2023-04-24T06:12:48;13.52;;;6.65;;
20619;SDS011;10469;42.720;23.252;2023-04-24T06:15:14;12.50;;;6.38;;
20619;SDS011;10469;42.720;23.252;2023-04-24T06:17:39;11.93;;;6.20;;
20619;SDS011;10469;42.720;23.252;2023-04-24T06:20:05;12.05;;;6.28;;
20619;SDS011;10469;42.720;23.252;2023-04-24T06:22:32;9.63;;;6.38;;
20619;SDS011;10469;42.720;23.252;2023-04-24T06:24:59;8.90;;;5.90;;
20619;SDS011;10469;42.720;23.252;2023-04-24T06:27:25;10.07;;;6.50;;
20619;SDS011;10469;42.720;23.252;2023-04-24T06:29:51;12.50;;;6.93;;
20619;SDS011;10469;42.720;23.252;2023-04-24T06:32:20;12.27;;;6.35;;
20619;SDS011;10469;42.720;23.252;2023-04-24T06:34:47;17.88;;;6.88;;
20619;SDS011;10469;42.720;23.252;2023-04-24T06:37:12;13.77;;;7.20;;
20619;SDS011;10469;42.720;23.252;2023-04-24T06:39:38;16.08;;;7.78;;
20619;SDS011;10469;42.720;23.252;2023-04-24T06:42:03;8.68;;;7.20;;
20619;SDS011;10469;42.720;23.252;2023-04-24T06:44:28;13.80;;;6.55;;
20619;SDS011;10469;42.720;23.252;2023-04-24T06:46:54;11.13;;;6.45;;
20619;SDS011;10469;42.720;23.252;2023-04-24T06:49:20;11.07;;;7.03;;
20619;SDS011;10469;42.720;23.252;2023-04-24T06:51:45;10.20;;;7.10;;
20619;SDS011;10469;42.720;23.252;2023-04-24T06:54:11;15.02;;;7.70;;
20619;SDS011;10469;42.720;23.252;2023-04-24T06:56:36;15.50;;;7.55;;
20619;SDS011;10469;42.720;23.252;2023-04-24T06:59:02;11.63;;;7.03;;
20619;SDS011;10469;42.720;23.252;2023-04-24T07:01:27;12.18;;;6.85;;
20619;SDS011;10469;42.720;23.252;2023-04-24T07:03:53;14.02;;;6.90;;
20619;SDS011;10469;42.720;23.252;2023-04-24T07:06:18;16.70;;;7.03;;
20619;SDS011;10469;42.720;23.252;2023-04-24T07:08:47;8.77;;;6.90;;
20619;SDS011;10469;42.720;23.252;2023-04-24T07:11:13;14.52;;;7.05;;
20619;SDS011;10469;42.720;23.252;2023-04-24T07:13:38;14.43;;;7.82;;
20619;SDS011;10469;42.720;23.252;2023-04-24T07:16:07;17.70;;;8.23;;
20619;SDS011;10469;42.720;23.252;2023-04-24T07:18:33;11.32;;;6.88;;
20619;SDS011;10469;42.720;23.252;2023-04-24T07:20:59;15.25;;;8.48;;
20619;SDS011;10469;42.720;23.252;2023-04-24T07:23:24;20.50;;;11.48;;
20619;SDS011;10469;42.720;23.252;2023-04-24T07:25:50;23.48;;;11.23;;
20619;SDS011;10469;42.720;23.252;2023-04-24T07:28:15;21.00;;;7.70;;
20619;SDS011;10469;42.720;23.252;2023-04-24T07:30:43;20.75;;;8.00;;
20619;SDS011;10469;42.720;23.252;2023-04-24T07:33:08;14.57;;;8.20;;
20619;SDS011;10469;42.720;23.252;2023-04-24T07:35:36;9.63;;;6.40;;
20619;SDS011;10469;42.720;23.252;2023-04-24T07:38:01;13.82;;;6.45;;
20619;SDS011;10469;42.720;23.252;2023-04-24T07:40:27;7.93;;;6.07;;
20619;SDS011;10469;42.720;23.252;2023-04-24T07:42:52;13.50;;;6.65;;
20619;SDS011;10469;42.720;23.252;2023-04-24T07:45:18;7.85;;;6.43;;
20619;SDS011;10469;42.720;23.252;2023-04-24T07:47:43;8.82;;;6.63;;
20619;SDS011;10469;42.720;23.252;2023-04-24T07:50:10;12.35;;;6.78;;
20619;SDS011;10469;42.720;23.252;2023-04-24T07:52:37;10.68;;;6.97;;
20619;SDS011;10469;42.720;23.252;2023-04-24T07:55:03;10.02;;;6.57;;
20619;SDS011;10469;42.720;23.252;2023-04-24T07:57:29;8.95;;;5.55;;
20619;SDS011;10469;42.720;23.252;2023-04-24T07:59:55;11.48;;;6.20;;
20619;SDS011;10469;42.720;23.252;2023-04-24T08:02:20;13.55;;;6.35;;
20619;SDS011;10469;42.720;23.252;2023-04-24T08:04:51;12.40;;;6.70;;
20619;SDS011;10469;42.720;23.252;2023-04-24T08:07:18;10.38;;;5.97;;
20619;SDS011;10469;42.720;23.252;2023-04-24T08:09:43;9.88;;;5.70;;
20619;SDS011;10469;42.720;23.252;2023-04-24T08:12:09;8.88;;;5.60;;
20619;SDS011;10469;42.720;23.252;2023-04-24T08:14:34;6.80;;;5.75;;
20619;SDS011;10469;42.720;23.252;2023-04-24T08:17:00;12.45;;;5.70;;
20619;SDS011;10469;42.720;23.252;2023-04-24T08:19:26;10.07;;;6.47;;
20619;SDS011;10469;42.720;23.252;2023-04-24T08:21:51;10.43;;;6.25;;
20619;SDS011;10469;42.720;23.252;2023-04-24T08:24:17;9.88;;;6.15;;
20619;SDS011;10469;42.720;23.252;2023-04-24T08:26:42;10.90;;;6.20;;
20619;SDS011;10469;42.720;23.252;2023-04-24T08:29:08;12.43;;;5.93;;
20619;SDS011;10469;42.720;23.252;2023-04-24T08:31:33;8.32;;;5.90;;
20619;SDS011;10469;42.720;23.252;2023-04-24T08:34:00;7.82;;;5.50;;
20619;SDS011;10469;42.720;23.252;2023-04-24T08:36:26;8.73;;;5.53;;
20619;SDS011;10469;42.720;23.252;2023-04-24T08:38:52;8.43;;;5.30;;
20619;SDS011;10469;42.720;23.252;2023-04-24T08:41:18;7.10;;;4.90;;
20619;SDS011;10469;42.720;23.252;2023-04-24T08:43:47;8.85;;;5.70;;
20619;SDS011;10469;42.720;23.252;2023-04-24T08:46:13;7.55;;;5.80;;
20619;SDS011;10469;42.720;23.252;2023-04-24T08:48:40;9.85;;;4.95;;
20619;SDS011;10469;42.720;23.252;2023-04-24T08:51:08;6.38;;;5.43;;
20619;SDS011;10469;42.720;23.252;2023-04-24T08:53:34;8.98;;;5.10;;
20619;SDS011;10469;42.720;23.252;2023-04-24T08:56:01;8.93;;;5.53;;
20619;SDS011;10469;42.720;23.252;2023-04-24T08:58:27;10.52;;;5.45;;
20619;SDS011;10469;42.720;23.252;2023-04-24T09:00:56;7.80;;;5.32;;
20619;SDS011;10469;42.720;23.252;2023-04-24T09:03:23;5.97;;;4.78;;
20619;SDS011;10469;42.720;23.252;2023-04-24T09:05:49;12.00;;;5.75;;
20619;SDS011;10469;42.720;23.252;2023-04-24T09:08:18;7.70;;;5.47;;
20619;SDS011;10469;42.720;23.252;2023-04-24T09:10:45;7.05;;;5.35;;
20619;SDS011;10469;42.720;23.252;2023-04-24T09:13:10;11.15;;;5.47;;
20619;SDS011;10469;42.720;23.252;2023-04-24T09:15:39;10.15;;;5.88;;
20619;SDS011;10469;42.720;23.252;2023-04-24T09:18:06;6.30;;;5.40;;
20619;SDS011;10469;42.720;23.252;2023-04-24T09:20:32;6.95;;;5.07;;
20619;SDS011;10469;42.720;23.252;2023-04-24T09:22:58;9.30;;;5.07;;
20619;SDS011;10469;42.720;23.252;2023-04-24T09:25:33;7.43;;;5.07;;
20619;SDS011;10469;42.720;23.252;2023-04-24T09:28:04;8.98;;;5.90;;
20619;SDS011;10469;42.720;23.252;2023-04-24T09:30:31;10.90;;;5.28;;
20619;SDS011;10469;42.720;23.252;2023-04-24T09:33:13;6.68;;;5.20;;
20619;SDS011;10469;42.720;23.252;2023-04-24T09:35:50;7.13;;;5.20;;
20619;SDS011;10469;42.720;23.252;2023-04-24T09:38:17;6.43;;;4.90;;
20619;SDS011;10469;42.720;23.252;2023-04-24T09:40:42;5.93;;;5.32;;
20619;SDS011;10469;42.720;23.252;2023-04-24T09:43:11;7.28;;;5.50;;
20619;SDS011;10469;42.720;23.252;2023-04-24T09:45:37;13.25;;;5.88;;
20619;SDS011;10469;42.720;23.252;2023-04-24T09:48:04;10.73;;;5.50;;
20619;SDS011;10469;42.720;23.252;2023-04-24T09:50:31;9.27;;;5.88;;
20619;SDS011;10469;42.720;23.252;2023-04-24T09:53:04;7.18;;;4.80;;
20619;SDS011;10469;42.720;23.252;2023-04-24T09:55:33;6.25;;;5.18;;
20619;SDS011;10469;42.720;23.252;2023-04-24T09:58:05;9.73;;;5.32;;
20619;SDS011;10469;42.720;23.252;2023-04-24T10:00:33;13.80;;;4.90;;
20619;SDS011;10469;42.720;23.252;2023-04-24T10:03:03;13.10;;;5.82;;
20619;SDS011;10469;42.720;23.252;2023-04-24T10:05:30;13.98;;;4.95;;
20619;SDS011;10469;42.720;23.252;2023-04-24T10:08:15;7.18;;;4.47;;
20619;SDS011;10469;42.720;23.252;2023-04-24T10:13:07;11.25;;;4.95;;
20619;SDS011;10469;42.720;23.252;2023-04-24T10:15:35;7.70;;;4.68;;
20619;SDS011;10469;42.720;23.252;2023-04-24T10:18:01;7.10;;;4.82;;
20619;SDS011;10469;42.720;23.252;2023-04-24T10:20:28;6.80;;;4.75;;
20619;SDS011;10469;42.720;23.252;2023-04-24T10:22:57;10.48;;;4.75;;
20619;SDS011;10469;42.720;23.252;2023-04-24T10:25:27;14.57;;;4.78;;
20619;SDS011;10469;42.720;23.252;2023-04-24T10:27:55;10.20;;;4.65;;
20619;SDS011;10469;42.720;23.252;2023-04-24T10:30:28;12.07;;;4.80;;
20619;SDS011;10469;42.720;23.252;2023-04-24T10:32:55;8.90;;;5.53;;
20619;SDS011;10469;42.720;23.252;2023-04-24T10:35:21;11.32;;;4.95;;
20619;SDS011;10469;42.720;23.252;2023-04-24T10:37:50;7.07;;;4.30;;
20619;SDS011;10469;42.720;23.252;2023-04-24T10:40:24;8.93;;;4.13;;
20619;SDS011;10469;42.720;23.252;2023-04-24T10:43:07;6.85;;;4.20;;
20619;SDS011;10469;42.720;23.252;2023-04-24T10:45:36;9.90;;;4.55;;
20619;SDS011;10469;42.720;23.252;2023-04-24T10:48:06;9.52;;;4.63;;
20619;SDS011;10469;42.720;23.252;2023-04-24T10:53:17;5.07;;;4.03;;
20619;SDS011;10469;42.720;23.252;2023-04-24T10:55:51;8.27;;;4.32;;
20619;SDS011;10469;42.720;23.252;2023-04-24T10:58:45;6.63;;;5.15;;
20619;SDS011;10469;42.720;23.252;2023-04-24T11:03:55;11.90;;;4.63;;
20619;SDS011;10469;42.720;23.252;2023-04-24T11:06:31;9.10;;;4.63;;
20619;SDS011;10469;42.720;23.252;2023-04-24T11:09:04;16.00;;;5.40;;
20619;SDS011;10469;42.720;23.252;2023-04-24T11:11:35;7.03;;;4.10;;
20619;SDS011;10469;42.720;23.252;2023-04-24T11:14:03;10.27;;;4.72;;
20619;SDS011;10469;42.720;23.252;2023-04-24T11:16:34;9.35;;;4.40;;
20619;SDS011;10469;42.720;23.252;2023-04-24T11:24:26;3.08;;;2.80;;
20619;SDS011;10469;42.720;23.252;2023-04-24T11:32:23;6.65;;;3.70;;
20619;SDS011;10469;42.720;23.252;2023-04-24T11:34:51;6.30;;;4.35;;
20619;SDS011;10469;42.720;23.252;2023-04-24T11:37:38;3.47;;;3.17;;
20619;SDS011;10469;42.720;23.252;2023-04-24T11:40:06;4.13;;;3.20;;
20619;SDS011;10469;42.720;23.252;2023-04-24T11:42:40;7.25;;;3.28;;
20619;SDS011;10469;42.720;23.252;2023-04-24T11:45:08;6.97;;;3.67;;
20619;SDS011;10469;42.720;23.252;2023-04-24T11:47:38;4.65;;;4.15;;
20619;SDS011;10469;42.720;23.252;2023-04-24T11:50:05;8.48;;;4.50;;
20619;SDS011;10469;42.720;23.252;2023-04-24T11:52:42;5.45;;;4.40;;
20619;SDS011;10469;42.720;23.252;2023-04-24T11:57:44;4.90;;;3.70;;
20619;SDS011;10469;42.720;23.252;2023-04-24T12:00:15;5.68;;;4.30;;
20619;SDS011;10469;42.720;23.252;2023-04-24T12:02:46;5.45;;;4.00;;
20619;SDS011;10469;42.720;23.252;2023-04-24T12:05:25;4.65;;;3.97;;
20619;SDS011;10469;42.720;23.252;2023-04-24T12:07:52;5.63;;;3.83;;
20619;SDS011;10469;42.720;23.252;2023-04-24T12:10:21;5.40;;;3.92;;
20619;SDS011;10469;42.720;23.252;2023-04-24T12:12:48;9.13;;;4.00;;
20619;SDS011;10469;42.720;23.252;2023-04-24T12:15:16;10.57;;;4.10;;
20619;SDS011;10469;42.720;23.252;2023-04-24T12:17:44;4.15;;;3.58;;
20619;SDS011;10469;42.720;23.252;2023-04-24T12:20:11;7.80;;;4.43;;
20619;SDS011;10469;42.720;23.252;2023-04-24T12:25:15;5.75;;;3.78;;
20619;SDS011;10469;42.720;23.252;2023-04-24T12:27:43;9.25;;;3.97;;
20619;SDS011;10469;42.720;23.252;2023-04-24T12:30:15;5.95;;;3.63;;
20619;SDS011;10469;42.720;23.252;2023-04-24T12:32:48;4.82;;;4.03;;
20619;SDS011;10469;42.720;23.252;2023-04-24T12:35:22;8.00;;;3.97;;
20619;SDS011;10469;42.720;23.252;2023-04-24T12:37:48;7.55;;;3.88;;
20619;SDS011;10469;42.720;23.252;2023-04-24T12:40:14;6.60;;;4.10;;
20619;SDS011;10469;42.720;23.252;2023-04-24T12:42:50;5.05;;;4.22;;
20619;SDS011;10469;42.720;23.252;2023-04-24T12:45:17;8.32;;;4.22;;
20619;SDS011;10469;42.720;23.252;2023-04-24T12:47:44;8.48;;;4.60;;
20619;SDS011;10469;42.720;23.252;2023-04-24T12:50:11;9.70;;;4.70;;
20619;SDS011;10469;42.720;23.252;2023-04-24T12:52:41;10.50;;;4.07;;
20619;SDS011;10469;42.720;23.252;2023-04-24T12:55:07;7.00;;;3.75;;
20619;SDS011;10469;42.720;23.252;2023-04-24T12:57:34;6.88;;;4.13;;
20619;SDS011;10469;42.720;23.252;2023-04-24T13:00:01;5.55;;;3.90;;
20619;SDS011;10469;42.720;23.252;2023-04-24T13:02:28;4.78;;;3.88;;
20619;SDS011;10469;42.720;23.252;2023-04-24T13:04:56;12.40;;;4.25;;
20619;SDS011;10469;42.720;23.252;2023-04-24T13:07:22;6.90;;;3.60;;
20619;SDS011;10469;42.720;23.252;2023-04-24T13:09:48;4.72;;;3.47;;
20619;SDS011;10469;42.720;23.252;2023-04-24T13:12:15;7.70;;;3.60;;
20619;SDS011;10469;42.720;23.252;2023-04-24T13:14:41;4.43;;;3.28;;
20619;SDS011;10469;42.720;23.252;2023-04-24T13:17:06;6.60;;;3.53;;
20619;SDS011;10469;42.720;23.252;2023-04-24T13:19:39;7.57;;;3.58;;
20619;SDS011;10469;42.720;23.252;2023-04-24T13:22:08;7.18;;;3.35;;
20619;SDS011;10469;42.720;23.252;2023-04-24T13:24:35;4.07;;;3.05;;
20619;SDS011;10469;42.720;23.252;2023-04-24T13:27:00;9.68;;;3.53;;
20619;SDS011;10469;42.720;23.252;2023-04-24T13:29:27;6.03;;;3.80;;
20619;SDS011;10469;42.720;23.252;2023-04-24T13:31:53;7.05;;;3.50;;
20619;SDS011;10469;42.720;23.252;2023-04-24T13:34:20;8.85;;;3.47;;
20619;SDS011;10469;42.720;23.252;2023-04-24T13:36:52;6.28;;;2.95;;
20619;SDS011;10469;42.720;23.252;2023-04-24T13:39:19;7.60;;;3.40;;
20619;SDS011;10469;42.720;23.252;2023-04-24T13:41:45;3.88;;;3.13;;
20619;SDS011;10469;42.720;23.252;2023-04-24T13:44:12;5.65;;;3.40;;
20619;SDS011;10469;42.720;23.252;2023-04-24T13:46:38;3.88;;;3.47;;
20619;SDS011;10469;42.720;23.252;2023-04-24T13:49:03;5.95;;;3.28;;
20619;SDS011;10469;42.720;23.252;2023-04-24T13:51:29;6.63;;;3.55;;
20619;SDS011;10469;42.720;23.252;2023-04-24T13:53:55;8.50;;;3.63;;
20619;SDS011;10469;42.720;23.252;2023-04-24T13:56:20;7.05;;;3.47;;
20619;SDS011;10469;42.720;23.252;2023-04-24T13:58:47;12.50;;;3.50;;
20619;SDS011;10469;42.720;23.252;2023-04-24T14:01:13;8.10;;;3.20;;
20619;SDS011;10469;42.720;23.252;2023-04-24T14:03:40;6.78;;;3.50;;
20619;SDS011;10469;42.720;23.252;2023-04-24T14:06:06;5.75;;;3.15;;
20619;SDS011;10469;42.720;23.252;2023-04-24T14:08:32;7.82;;;3.15;;
20619;SDS011;10469;42.720;23.252;2023-04-24T14:10:57;4.03;;;3.15;;
20619;SDS011;10469;42.720;23.252;2023-04-24T14:13:23;5.30;;;2.63;;
20619;SDS011;10469;42.720;23.252;2023-04-24T14:15:49;3.33;;;3.08;;
20619;SDS011;10469;42.720;23.252;2023-04-24T14:18:14;4.63;;;3.17;;
20619;SDS011;10469;42.720;23.252;2023-04-24T14:20:40;3.33;;;2.92;;
20619;SDS011;10469;42.720;23.252;2023-04-24T14:23:05;4.82;;;3.20;;
20619;SDS011;10469;42.720;23.252;2023-04-24T14:25:31;3.88;;;3.10;;
20619;SDS011;10469;42.720;23.252;2023-04-24T14:27:56;8.88;;;3.35;;
20619;SDS011;10469;42.720;23.252;2023-04-24T14:30:22;7.72;;;3.15;;
20619;SDS011;10469;42.720;23.252;2023-04-24T14:32:48;4.25;;;2.92;;
20619;SDS011;10469;42.720;23.252;2023-04-24T14:35:13;5.03;;;3.50;;
20619;SDS011;10469;42.720;23.252;2023-04-24T14:37:39;6.80;;;3.33;;
20619;SDS011;10469;42.720;23.252;2023-04-24T14:40:06;5.57;;;3.05;;
20619;SDS011;10469;42.720;23.252;2023-04-24T14:42:33;4.25;;;3.20;;
20619;SDS011;10469;42.720;23.252;2023-04-24T14:44:58;5.45;;;3.50;;
20619;SDS011;10469;42.720;23.252;2023-04-24T14:47:24;7.78;;;3.40;;